sensor_id;sensor_type;location;lat;lon;timestamp;P1;durP1;ratioP1;P2;durP2;ratioP2
44842;SDS011;31884;52.538;13.820;2023-05-10T00:00:26;11.95;;;6.05;;
44842;SDS011;31884;52.538;13.820;2023-05-10T00:02:52;9.25;;;5.57;;
44842;SDS011;31884;52.538;13.820;2023-05-10T00:05:18;7.40;;;5.22;;
44842;SDS011;31884;52.538;13.820;2023-05-10T00:07:43;10.52;;;5.95;;
44842;SDS011;31884;52.538;13.820;2023-05-10T00:10:12;9.02;;;5.32;;
44842;SDS011;31884;52.538;13.820;2023-05-10T00:12:37;7.90;;;4.88;;
44842;SDS011;31884;52.538;13.820;2023-05-10T00:15:03;7.22;;;5.32;;
44842;SDS011;31884;52.538;13.820;2023-05-10T00:17:30;12.48;;;6.47;;
44842;SDS011;31884;52.538;13.820;2023-05-10T00:19:55;8.68;;;5.38;;
44842;SDS011;31884;52.538;13.820;2023-05-10T00:22:21;7.53;;;5.15;;
44842;SDS011;31884;52.538;13.820;2023-05-10T00:24:46;8.60;;;5.53;;
44842;SDS011;31884;52.538;13.820;2023-05-10T00:27:12;7.93;;;5.32;;
44842;SDS011;31884;52.538;13.820;2023-05-10T00:29:37;8.30;;;5.60;;
44842;SDS011;31884;52.538;13.820;2023-05-10T00:32:03;9.52;;;6.18;;
44842;SDS011;31884;52.538;13.820;2023-05-10T00:34:29;11.60;;;5.90;;
44842;SDS011;31884;52.538;13.820;2023-05-10T00:36:54;9.82;;;5.82;;
44842;SDS011;31884;52.538;13.820;2023-05-10T00:39:20;10.20;;;6.18;;
44842;SDS011;31884;52.538;13.820;2023-05-10T00:41:45;13.18;;;5.95;;
44842;SDS011;31884;52.538;13.820;2023-05-10T00:44:11;8.73;;;6.07;;
44842;SDS011;31884;52.538;13.820;2023-05-10T00:46:36;6.90;;;5.22;;
44842;SDS011;31884;52.538;13.820;2023-05-10T00:49:02;10.93;;;6.03;;
44842;SDS011;31884;52.538;13.820;2023-05-10T00:51:27;10.23;;;6.03;;
44842;SDS011;31884;52.538;13.820;2023-05-10T00:53:53;9.38;;;6.20;;
44842;SDS011;31884;52.538;13.820;2023-05-10T00:56:20;12.43;;;6.53;;
44842;SDS011;31884;52.538;13.820;2023-05-10T00:58:48;9.20;;;5.57;;
44842;SDS011;31884;52.538;13.820;2023-05-10T01:01:13;10.10;;;5.47;;
44842;SDS011;31884;52.538;13.820;2023-05-10T01:03:39;10.00;;;5.60;;
44842;SDS011;31884;52.538;13.820;2023-05-10T01:06:05;8.90;;;5.88;;
44842;SDS011;31884;52.538;13.820;2023-05-10T01:08:31;7.78;;;5.40;;
44842;SDS011;31884;52.538;13.820;2023-05-10T01:10:57;7.38;;;5.68;;
44842;SDS011;31884;52.538;13.820;2023-05-10T01:13:44;9.63;;;5.32;;
44842;SDS011;31884;52.538;13.820;2023-05-10T01:16:10;7.40;;;5.07;;
44842;SDS011;31884;52.538;13.820;2023-05-10T01:18:37;7.97;;;5.47;;
44842;SDS011;31884;52.538;13.820;2023-05-10T01:26:39;12.77;;;5.22;;
44842;SDS011;31884;52.538;13.820;2023-05-10T01:29:19;6.97;;;5.25;;
44842;SDS011;31884;52.538;13.820;2023-05-10T01:34:59;8.90;;;5.38;;
44842;SDS011;31884;52.538;13.820;2023-05-10T01:38:08;11.98;;;5.55;;
44842;SDS011;31884;52.538;13.820;2023-05-10T01:40:32;6.68;;;4.75;;
44842;SDS011;31884;52.538;13.820;2023-05-10T01:43:08;10.00;;;5.25;;
44842;SDS011;31884;52.538;13.820;2023-05-10T01:46:02;7.88;;;5.40;;
44842;SDS011;31884;52.538;13.820;2023-05-10T01:48:36;7.93;;;4.57;;
44842;SDS011;31884;52.538;13.820;2023-05-10T01:51:05;7.55;;;4.85;;
44842;SDS011;31884;52.538;13.820;2023-05-10T01:53:31;6.82;;;4.43;;
44842;SDS011;31884;52.538;13.820;2023-05-10T01:55:59;9.77;;;5.13;;
44842;SDS011;31884;52.538;13.820;2023-05-10T01:58:30;9.40;;;4.70;;
44842;SDS011;31884;52.538;13.820;2023-05-10T02:00:58;9.75;;;5.05;;
44842;SDS011;31884;52.538;13.820;2023-05-10T02:03:26;7.03;;;4.93;;
44842;SDS011;31884;52.538;13.820;2023-05-10T02:05:53;9.98;;;4.55;;
44842;SDS011;31884;52.538;13.820;2023-05-10T02:08:21;9.13;;;5.13;;
44842;SDS011;31884;52.538;13.820;2023-05-10T02:10:47;11.35;;;5.40;;
44842;SDS011;31884;52.538;13.820;2023-05-10T02:13:15;10.82;;;5.63;;
44842;SDS011;31884;52.538;13.820;2023-05-10T02:15:42;8.45;;;4.97;;
44842;SDS011;31884;52.538;13.820;2023-05-10T02:18:12;7.80;;;4.97;;
44842;SDS011;31884;52.538;13.820;2023-05-10T02:20:39;7.82;;;4.45;;
44842;SDS011;31884;52.538;13.820;2023-05-10T02:23:05;7.85;;;5.45;;
44842;SDS011;31884;52.538;13.820;2023-05-10T02:25:32;10.77;;;4.90;;
44842;SDS011;31884;52.538;13.820;2023-05-10T02:27:58;6.50;;;5.00;;
44842;SDS011;31884;52.538;13.820;2023-05-10T02:30:26;9.80;;;5.00;;
44842;SDS011;31884;52.538;13.820;2023-05-10T02:32:53;6.43;;;4.55;;
44842;SDS011;31884;52.538;13.820;2023-05-10T02:35:21;6.68;;;4.95;;
44842;SDS011;31884;52.538;13.820;2023-05-10T02:37:47;6.97;;;4.38;;
44842;SDS011;31884;52.538;13.820;2023-05-10T02:40:15;6.97;;;5.05;;
44842;SDS011;31884;52.538;13.820;2023-05-10T02:42:42;7.25;;;4.88;;
44842;SDS011;31884;52.538;13.820;2023-05-10T02:45:13;8.18;;;4.70;;
44842;SDS011;31884;52.538;13.820;2023-05-10T02:47:42;9.52;;;4.72;;
44842;SDS011;31884;52.538;13.820;2023-05-10T02:50:08;7.53;;;4.68;;
44842;SDS011;31884;52.538;13.820;2023-05-10T02:52:44;7.47;;;4.50;;
44842;SDS011;31884;52.538;13.820;2023-05-10T02:55:14;8.98;;;4.95;;
44842;SDS011;31884;52.538;13.820;2023-05-10T02:57:43;7.97;;;4.82;;
44842;SDS011;31884;52.538;13.820;2023-05-10T03:00:15;8.77;;;5.05;;
44842;SDS011;31884;52.538;13.820;2023-05-10T03:02:41;8.93;;;5.35;;
44842;SDS011;31884;52.538;13.820;2023-05-10T03:05:06;8.57;;;4.30;;
44842;SDS011;31884;52.538;13.820;2023-05-10T03:07:33;9.93;;;4.93;;
44842;SDS011;31884;52.538;13.820;2023-05-10T03:09:59;7.00;;;4.72;;
44842;SDS011;31884;52.538;13.820;2023-05-10T03:15:42;10.23;;;5.30;;
44842;SDS011;31884;52.538;13.820;2023-05-10T03:18:29;8.07;;;4.65;;
44842;SDS011;31884;52.538;13.820;2023-05-10T03:21:08;17.48;;;5.57;;
44842;SDS011;31884;52.538;13.820;2023-05-10T03:23:47;7.93;;;5.05;;
44842;SDS011;31884;52.538;13.820;2023-05-10T03:26:27;8.60;;;4.45;;
44842;SDS011;31884;52.538;13.820;2023-05-10T03:28:53;7.35;;;5.00;;
44842;SDS011;31884;52.538;13.820;2023-05-10T03:31:20;6.97;;;4.85;;
44842;SDS011;31884;52.538;13.820;2023-05-10T03:33:46;11.65;;;5.00;;
44842;SDS011;31884;52.538;13.820;2023-05-10T03:36:16;7.25;;;4.80;;
44842;SDS011;31884;52.538;13.820;2023-05-10T03:38:42;9.48;;;4.75;;
44842;SDS011;31884;52.538;13.820;2023-05-10T03:41:07;7.63;;;4.90;;
44842;SDS011;31884;52.538;13.820;2023-05-10T03:43:33;8.00;;;4.65;;
44842;SDS011;31884;52.538;13.820;2023-05-10T03:45:58;8.38;;;4.93;;
44842;SDS011;31884;52.538;13.820;2023-05-10T03:48:26;9.18;;;4.63;;
44842;SDS011;31884;52.538;13.820;2023-05-10T03:50:51;10.55;;;5.63;;
44842;SDS011;31884;52.538;13.820;2023-05-10T03:53:17;7.78;;;4.75;;
44842;SDS011;31884;52.538;13.820;2023-05-10T03:55:42;9.65;;;4.80;;
44842;SDS011;31884;52.538;13.820;2023-05-10T03:58:10;4.78;;;4.07;;
44842;SDS011;31884;52.538;13.820;2023-05-10T04:00:36;8.75;;;5.03;;
44842;SDS011;31884;52.538;13.820;2023-05-10T04:03:01;7.10;;;4.03;;
44842;SDS011;31884;52.538;13.820;2023-05-10T04:05:27;8.40;;;4.82;;
44842;SDS011;31884;52.538;13.820;2023-05-10T04:07:54;9.63;;;5.07;;
44842;SDS011;31884;52.538;13.820;2023-05-10T04:10:19;7.20;;;4.80;;
44842;SDS011;31884;52.538;13.820;2023-05-10T04:12:46;9.00;;;4.75;;
44842;SDS011;31884;52.538;13.820;2023-05-10T04:15:11;8.13;;;5.03;;
44842;SDS011;31884;52.538;13.820;2023-05-10T04:17:37;9.07;;;4.43;;
44842;SDS011;31884;52.538;13.820;2023-05-10T04:20:02;5.68;;;4.32;;
44842;SDS011;31884;52.538;13.820;2023-05-10T04:22:28;6.78;;;3.85;;
44842;SDS011;31884;52.538;13.820;2023-05-10T04:24:54;7.38;;;3.75;;
44842;SDS011;31884;52.538;13.820;2023-05-10T04:27:19;4.82;;;3.63;;
44842;SDS011;31884;52.538;13.820;2023-05-10T04:29:45;7.20;;;4.15;;
44842;SDS011;31884;52.538;13.820;2023-05-10T04:32:10;5.55;;;3.67;;
44842;SDS011;31884;52.538;13.820;2023-05-10T04:34:36;9.38;;;4.53;;
44842;SDS011;31884;52.538;13.820;2023-05-10T04:37:02;6.28;;;3.88;;
44842;SDS011;31884;52.538;13.820;2023-05-10T04:39:27;7.03;;;4.43;;
44842;SDS011;31884;52.538;13.820;2023-05-10T04:41:53;9.32;;;4.05;;
44842;SDS011;31884;52.538;13.820;2023-05-10T04:44:19;5.55;;;4.30;;
44842;SDS011;31884;52.538;13.820;2023-05-10T04:46:44;5.82;;;3.50;;
44842;SDS011;31884;52.538;13.820;2023-05-10T04:49:09;6.75;;;3.97;;
44842;SDS011;31884;52.538;13.820;2023-05-10T04:51:35;4.60;;;3.58;;
44842;SDS011;31884;52.538;13.820;2023-05-10T04:54:00;10.38;;;3.90;;
44842;SDS011;31884;52.538;13.820;2023-05-10T04:56:26;7.88;;;3.83;;
44842;SDS011;31884;52.538;13.820;2023-05-10T04:58:51;4.72;;;3.85;;
44842;SDS011;31884;52.538;13.820;2023-05-10T05:01:17;5.85;;;4.03;;
44842;SDS011;31884;52.538;13.820;2023-05-10T05:03:42;10.65;;;3.60;;
44842;SDS011;31884;52.538;13.820;2023-05-10T05:06:08;5.05;;;3.58;;
44842;SDS011;31884;52.538;13.820;2023-05-10T05:08:33;5.53;;;3.03;;
44842;SDS011;31884;52.538;13.820;2023-05-10T05:10:59;6.35;;;3.80;;
44842;SDS011;31884;52.538;13.820;2023-05-10T05:13:24;4.78;;;3.60;;
44842;SDS011;31884;52.538;13.820;2023-05-10T05:15:50;5.38;;;3.83;;
44842;SDS011;31884;52.538;13.820;2023-05-10T05:18:15;5.68;;;3.78;;
44842;SDS011;31884;52.538;13.820;2023-05-10T05:20:41;10.15;;;4.30;;
44842;SDS011;31884;52.538;13.820;2023-05-10T05:23:06;6.88;;;3.53;;
44842;SDS011;31884;52.538;13.820;2023-05-10T05:25:32;5.22;;;3.65;;
44842;SDS011;31884;52.538;13.820;2023-05-10T05:27:57;5.18;;;3.60;;
44842;SDS011;31884;52.538;13.820;2023-05-10T05:30:23;4.72;;;3.00;;
44842;SDS011;31884;52.538;13.820;2023-05-10T05:32:48;4.47;;;3.35;;
44842;SDS011;31884;52.538;13.820;2023-05-10T05:35:14;4.03;;;3.20;;
44842;SDS011;31884;52.538;13.820;2023-05-10T05:37:39;4.90;;;3.15;;
44842;SDS011;31884;52.538;13.820;2023-05-10T05:40:05;3.92;;;3.00;;
44842;SDS011;31884;52.538;13.820;2023-05-10T05:42:31;5.95;;;3.00;;
44842;SDS011;31884;52.538;13.820;2023-05-10T05:44:57;5.43;;;3.17;;
44842;SDS011;31884;52.538;13.820;2023-05-10T05:47:22;4.45;;;3.15;;
44842;SDS011;31884;52.538;13.820;2023-05-10T05:49:48;3.75;;;3.17;;
44842;SDS011;31884;52.538;13.820;2023-05-10T05:52:13;4.90;;;3.35;;
44842;SDS011;31884;52.538;13.820;2023-05-10T05:54:39;4.32;;;2.78;;
44842;SDS011;31884;52.538;13.820;2023-05-10T05:57:04;7.13;;;2.80;;
44842;SDS011;31884;52.538;13.820;2023-05-10T05:59:30;3.47;;;2.53;;
44842;SDS011;31884;52.538;13.820;2023-05-10T06:01:56;4.05;;;3.17;;
44842;SDS011;31884;52.538;13.820;2023-05-10T06:04:21;8.40;;;3.38;;
44842;SDS011;31884;52.538;13.820;2023-05-10T06:06:47;3.47;;;2.72;;
44842;SDS011;31884;52.538;13.820;2023-05-10T06:09:12;5.45;;;3.33;;
44842;SDS011;31884;52.538;13.820;2023-05-10T06:11:38;4.22;;;2.90;;
44842;SDS011;31884;52.538;13.820;2023-05-10T06:14:04;3.85;;;2.90;;
44842;SDS011;31884;52.538;13.820;2023-05-10T06:16:30;4.80;;;3.08;;
44842;SDS011;31884;52.538;13.820;2023-05-10T06:18:56;5.50;;;2.70;;
44842;SDS011;31884;52.538;13.820;2023-05-10T06:21:21;3.75;;;2.70;;
44842;SDS011;31884;52.538;13.820;2023-05-10T06:23:47;3.42;;;2.42;;
44842;SDS011;31884;52.538;13.820;2023-05-10T06:26:12;4.75;;;2.67;;
44842;SDS011;31884;52.538;13.820;2023-05-10T06:28:38;7.28;;;2.70;;
44842;SDS011;31884;52.538;13.820;2023-05-10T06:31:04;5.55;;;2.80;;
44842;SDS011;31884;52.538;13.820;2023-05-10T06:33:31;3.45;;;2.30;;
44842;SDS011;31884;52.538;13.820;2023-05-10T06:35:57;5.68;;;2.72;;
44842;SDS011;31884;52.538;13.820;2023-05-10T06:38:23;4.78;;;2.95;;
44842;SDS011;31884;52.538;13.820;2023-05-10T06:40:48;5.68;;;3.00;;
44842;SDS011;31884;52.538;13.820;2023-05-10T06:43:14;5.28;;;3.03;;
44842;SDS011;31884;52.538;13.820;2023-05-10T06:45:39;9.75;;;2.97;;
44842;SDS011;31884;52.538;13.820;2023-05-10T06:48:06;3.47;;;2.92;;
44842;SDS011;31884;52.538;13.820;2023-05-10T06:50:31;4.07;;;2.88;;
44842;SDS011;31884;52.538;13.820;2023-05-10T06:52:58;5.30;;;2.22;;
44842;SDS011;31884;52.538;13.820;2023-05-10T06:55:24;4.70;;;2.35;;
44842;SDS011;31884;52.538;13.820;2023-05-10T06:57:49;3.63;;;2.92;;
44842;SDS011;31884;52.538;13.820;2023-05-10T07:00:15;4.35;;;2.22;;
44842;SDS011;31884;52.538;13.820;2023-05-10T07:02:41;5.20;;;2.42;;
44842;SDS011;31884;52.538;13.820;2023-05-10T07:05:07;3.72;;;2.92;;
44842;SDS011;31884;52.538;13.820;2023-05-10T07:07:33;2.15;;;1.95;;
44842;SDS011;31884;52.538;13.820;2023-05-10T07:09:58;5.18;;;2.58;;
44842;SDS011;31884;52.538;13.820;2023-05-10T07:12:24;2.83;;;2.35;;
44842;SDS011;31884;52.538;13.820;2023-05-10T07:14:50;2.97;;;2.28;;
44842;SDS011;31884;52.538;13.820;2023-05-10T07:17:15;4.82;;;2.22;;
44842;SDS011;31884;52.538;13.820;2023-05-10T07:19:41;6.30;;;2.63;;
44842;SDS011;31884;52.538;13.820;2023-05-10T07:22:06;3.45;;;2.53;;
44842;SDS011;31884;52.538;13.820;2023-05-10T07:24:32;2.50;;;1.85;;
44842;SDS011;31884;52.538;13.820;2023-05-10T07:26:58;10.13;;;2.40;;
44842;SDS011;31884;52.538;13.820;2023-05-10T07:29:23;2.63;;;1.92;;
44842;SDS011;31884;52.538;13.820;2023-05-10T07:31:49;2.30;;;2.10;;
44842;SDS011;31884;52.538;13.820;2023-05-10T07:34:15;6.07;;;2.38;;
44842;SDS011;31884;52.538;13.820;2023-05-10T07:36:40;2.95;;;2.13;;
44842;SDS011;31884;52.538;13.820;2023-05-10T07:39:06;4.47;;;1.90;;
44842;SDS011;31884;52.538;13.820;2023-05-10T07:41:31;3.78;;;2.20;;
44842;SDS011;31884;52.538;13.820;2023-05-10T07:43:57;2.50;;;2.30;;
44842;SDS011;31884;52.538;13.820;2023-05-10T07:46:23;3.25;;;2.15;;
44842;SDS011;31884;52.538;13.820;2023-05-10T07:48:48;4.53;;;2.15;;
44842;SDS011;31884;52.538;13.820;2023-05-10T07:51:14;6.45;;;2.33;;
44842;SDS011;31884;52.538;13.820;2023-05-10T07:53:39;3.95;;;2.28;;
44842;SDS011;31884;52.538;13.820;2023-05-10T07:58:50;4.53;;;2.50;;
44842;SDS011;31884;52.538;13.820;2023-05-10T08:01:16;4.28;;;2.50;;
44842;SDS011;31884;52.538;13.820;2023-05-10T08:03:42;3.47;;;2.03;;
44842;SDS011;31884;52.538;13.820;2023-05-10T08:06:07;3.53;;;1.90;;
44842;SDS011;31884;52.538;13.820;2023-05-10T08:08:32;2.47;;;1.85;;
44842;SDS011;31884;52.538;13.820;2023-05-10T08:10:58;2.85;;;2.08;;
44842;SDS011;31884;52.538;13.820;2023-05-10T08:13:23;5.95;;;2.20;;
44842;SDS011;31884;52.538;13.820;2023-05-10T08:15:49;2.38;;;2.05;;
44842;SDS011;31884;52.538;13.820;2023-05-10T08:18:17;3.10;;;1.67;;
44842;SDS011;31884;52.538;13.820;2023-05-10T08:20:43;3.88;;;2.08;;
44842;SDS011;31884;52.538;13.820;2023-05-10T08:23:08;3.20;;;2.33;;
44842;SDS011;31884;52.538;13.820;2023-05-10T08:25:34;3.05;;;1.83;;
44842;SDS011;31884;52.538;13.820;2023-05-10T08:27:59;3.35;;;2.30;;
44842;SDS011;31884;52.538;13.820;2023-05-10T08:30:25;5.45;;;2.20;;
44842;SDS011;31884;52.538;13.820;2023-05-10T08:32:50;5.68;;;2.55;;
44842;SDS011;31884;52.538;13.820;2023-05-10T08:35:16;2.88;;;2.03;;
44842;SDS011;31884;52.538;13.820;2023-05-10T08:37:41;2.80;;;1.80;;
44842;SDS011;31884;52.538;13.820;2023-05-10T08:40:07;2.92;;;2.58;;
44842;SDS011;31884;52.538;13.820;2023-05-10T08:42:36;2.47;;;2.13;;
44842;SDS011;31884;52.538;13.820;2023-05-10T08:45:05;4.82;;;2.90;;
44842;SDS011;31884;52.538;13.820;2023-05-10T08:47:32;2.17;;;1.80;;
44842;SDS011;31884;52.538;13.820;2023-05-10T08:49:59;5.82;;;2.65;;
44842;SDS011;31884;52.538;13.820;2023-05-10T08:52:27;2.75;;;2.10;;
44842;SDS011;31884;52.538;13.820;2023-05-10T08:54:54;3.60;;;2.45;;
44842;SDS011;31884;52.538;13.820;2023-05-10T08:57:20;3.85;;;2.30;;
44842;SDS011;31884;52.538;13.820;2023-05-10T08:59:46;3.15;;;2.50;;
44842;SDS011;31884;52.538;13.820;2023-05-10T09:02:12;2.95;;;2.05;;
44842;SDS011;31884;52.538;13.820;2023-05-10T09:04:38;4.95;;;2.00;;
44842;SDS011;31884;52.538;13.820;2023-05-10T09:07:04;4.10;;;2.20;;
44842;SDS011;31884;52.538;13.820;2023-05-10T09:09:31;2.40;;;2.08;;
44842;SDS011;31884;52.538;13.820;2023-05-10T09:11:56;4.25;;;2.10;;
44842;SDS011;31884;52.538;13.820;2023-05-10T09:14:23;4.47;;;2.53;;
44842;SDS011;31884;52.538;13.820;2023-05-10T09:16:49;2.28;;;2.08;;
44842;SDS011;31884;52.538;13.820;2023-05-10T09:19:15;2.30;;;2.00;;
44842;SDS011;31884;52.538;13.820;2023-05-10T09:21:41;5.22;;;2.42;;
44842;SDS011;31884;52.538;13.820;2023-05-10T09:24:06;4.70;;;2.17;;
44842;SDS011;31884;52.538;13.820;2023-05-10T09:26:33;2.53;;;2.33;;
44842;SDS011;31884;52.538;13.820;2023-05-10T09:29:00;5.18;;;2.90;;
44842;SDS011;31884;52.538;13.820;2023-05-10T09:32:10;6.28;;;2.35;;
44842;SDS011;31884;52.538;13.820;2023-05-10T09:34:18;3.80;;;2.20;;
44842;SDS011;31884;52.538;13.820;2023-05-10T09:36:54;7.32;;;2.30;;
44842;SDS011;31884;52.538;13.820;2023-05-10T09:42:02;2.95;;;2.42;;
44842;SDS011;31884;52.538;13.820;2023-05-10T09:44:29;3.08;;;2.25;;
44842;SDS011;31884;52.538;13.820;2023-05-10T09:46:55;5.00;;;2.70;;
44842;SDS011;31884;52.538;13.820;2023-05-10T09:49:21;3.65;;;2.83;;
44842;SDS011;31884;52.538;13.820;2023-05-10T09:51:47;2.97;;;2.35;;
44842;SDS011;31884;52.538;13.820;2023-05-10T09:54:29;3.13;;;2.40;;
44842;SDS011;31884;52.538;13.820;2023-05-10T09:56:55;2.30;;;2.03;;
44842;SDS011;31884;52.538;13.820;2023-05-10T09:59:21;3.78;;;2.40;;
44842;SDS011;31884;52.538;13.820;2023-05-10T10:01:50;2.35;;;2.08;;
44842;SDS011;31884;52.538;13.820;2023-05-10T10:04:16;3.25;;;2.22;;
44842;SDS011;31884;52.538;13.820;2023-05-10T10:06:42;4.63;;;3.00;;
44842;SDS011;31884;52.538;13.820;2023-05-10T10:09:08;2.90;;;2.53;;
44842;SDS011;31884;52.538;13.820;2023-05-10T10:11:34;5.78;;;2.45;;
44842;SDS011;31884;52.538;13.820;2023-05-10T10:14:01;2.72;;;2.47;;
44842;SDS011;31884;52.538;13.820;2023-05-10T10:16:28;3.35;;;2.10;;
44842;SDS011;31884;52.538;13.820;2023-05-10T10:18:54;2.63;;;2.42;;
44842;SDS011;31884;52.538;13.820;2023-05-10T10:21:21;6.15;;;2.50;;
44842;SDS011;31884;52.538;13.820;2023-05-10T10:23:47;3.17;;;2.50;;
44842;SDS011;31884;52.538;13.820;2023-05-10T10:26:13;3.53;;;2.55;;
44842;SDS011;31884;52.538;13.820;2023-05-10T10:31:32;2.67;;;2.38;;
44842;SDS011;31884;52.538;13.820;2023-05-10T10:34:27;5.88;;;2.47;;
44842;SDS011;31884;52.538;13.820;2023-05-10T10:36:54;2.97;;;2.30;;
44842;SDS011;31884;52.538;13.820;2023-05-10T10:39:21;3.95;;;2.75;;
44842;SDS011;31884;52.538;13.820;2023-05-10T10:41:53;8.50;;;2.85;;
44842;SDS011;31884;52.538;13.820;2023-05-10T10:47:02;4.70;;;2.90;;
44842;SDS011;31884;52.538;13.820;2023-05-10T10:50:02;3.15;;;2.65;;
44842;SDS011;31884;52.538;13.820;2023-05-10T10:52:26;2.75;;;2.33;;
44842;SDS011;31884;52.538;13.820;2023-05-10T10:54:58;8.48;;;2.90;;
44842;SDS011;31884;52.538;13.820;2023-05-10T10:57:31;5.90;;;2.80;;
44842;SDS011;31884;52.538;13.820;2023-05-10T11:00:20;5.93;;;3.03;;
44842;SDS011;31884;52.538;13.820;2023-05-10T11:05:38;4.07;;;2.60;;
44842;SDS011;31884;52.538;13.820;2023-05-10T11:08:09;2.70;;;2.33;;
44842;SDS011;31884;52.538;13.820;2023-05-10T11:11:05;4.68;;;2.90;;
44842;SDS011;31884;52.538;13.820;2023-05-10T11:13:39;7.18;;;2.53;;
44842;SDS011;31884;52.538;13.820;2023-05-10T11:16:15;3.13;;;2.30;;
44842;SDS011;31884;52.538;13.820;2023-05-10T11:18:51;2.75;;;2.30;;
44842;SDS011;31884;52.538;13.820;2023-05-10T11:21:17;6.38;;;2.35;;
44842;SDS011;31884;52.538;13.820;2023-05-10T11:26:11;3.00;;;2.50;;
44842;SDS011;31884;52.538;13.820;2023-05-10T11:28:47;3.53;;;2.65;;
44842;SDS011;31884;52.538;13.820;2023-05-10T11:31:14;4.95;;;2.70;;
44842;SDS011;31884;52.538;13.820;2023-05-10T11:36:16;6.93;;;2.67;;
44842;SDS011;31884;52.538;13.820;2023-05-10T11:38:42;3.22;;;2.03;;
44842;SDS011;31884;52.538;13.820;2023-05-10T11:41:08;4.03;;;2.60;;
44842;SDS011;31884;52.538;13.820;2023-05-10T11:43:35;5.05;;;2.10;;
44842;SDS011;31884;52.538;13.820;2023-05-10T11:46:03;7.60;;;2.63;;
44842;SDS011;31884;52.538;13.820;2023-05-10T11:48:32;2.35;;;2.00;;
44842;SDS011;31884;52.538;13.820;2023-05-10T11:50:58;4.53;;;2.45;;
44842;SDS011;31884;52.538;13.820;2023-05-10T11:53:27;4.30;;;2.45;;
44842;SDS011;31884;52.538;13.820;2023-05-10T11:55:54;5.88;;;2.28;;
44842;SDS011;31884;52.538;13.820;2023-05-10T11:58:19;2.33;;;2.13;;
44842;SDS011;31884;52.538;13.820;2023-05-10T12:00:46;3.28;;;2.50;;
44842;SDS011;31884;52.538;13.820;2023-05-10T12:03:12;4.53;;;1.88;;
44842;SDS011;31884;52.538;13.820;2023-05-10T12:05:38;4.03;;;2.45;;
44842;SDS011;31884;52.538;13.820;2023-05-10T12:08:22;4.65;;;2.40;;
44842;SDS011;31884;52.538;13.820;2023-05-10T12:10:49;3.42;;;2.50;;
44842;SDS011;31884;52.538;13.820;2023-05-10T12:13:15;3.85;;;2.65;;
44842;SDS011;31884;52.538;13.820;2023-05-10T12:15:41;3.03;;;2.53;;
44842;SDS011;31884;52.538;13.820;2023-05-10T12:18:10;3.15;;;2.35;;
44842;SDS011;31884;52.538;13.820;2023-05-10T12:20:40;6.50;;;2.53;;
44842;SDS011;31884;52.538;13.820;2023-05-10T12:23:08;2.67;;;1.95;;
44842;SDS011;31884;52.538;13.820;2023-05-10T12:25:35;3.35;;;2.00;;
44842;SDS011;31884;52.538;13.820;2023-05-10T12:28:05;2.35;;;1.80;;
44842;SDS011;31884;52.538;13.820;2023-05-10T12:30:33;5.00;;;2.05;;
44842;SDS011;31884;52.538;13.820;2023-05-10T12:33:00;2.63;;;2.38;;
44842;SDS011;31884;52.538;13.820;2023-05-10T12:35:32;4.10;;;2.00;;
44842;SDS011;31884;52.538;13.820;2023-05-10T12:37:58;4.28;;;2.25;;
44842;SDS011;31884;52.538;13.820;2023-05-10T12:40:24;3.85;;;1.98;;
44842;SDS011;31884;52.538;13.820;2023-05-10T12:42:50;2.80;;;2.00;;
44842;SDS011;31884;52.538;13.820;2023-05-10T12:45:17;3.10;;;2.20;;
44842;SDS011;31884;52.538;13.820;2023-05-10T12:47:43;2.40;;;2.08;;
44842;SDS011;31884;52.538;13.820;2023-05-10T12:50:08;3.63;;;2.15;;
44842;SDS011;31884;52.538;13.820;2023-05-10T12:52:34;2.17;;;1.80;;
44842;SDS011;31884;52.538;13.820;2023-05-10T12:55:00;2.55;;;2.00;;
44842;SDS011;31884;52.538;13.820;2023-05-10T12:57:26;3.80;;;2.35;;
44842;SDS011;31884;52.538;13.820;2023-05-10T12:59:52;2.90;;;2.20;;
44842;SDS011;31884;52.538;13.820;2023-05-10T13:02:18;4.25;;;2.42;;
44842;SDS011;31884;52.538;13.820;2023-05-10T13:04:44;2.55;;;2.20;;
44842;SDS011;31884;52.538;13.820;2023-05-10T13:07:11;4.28;;;2.33;;
44842;SDS011;31884;52.538;13.820;2023-05-10T13:09:36;4.97;;;2.25;;
44842;SDS011;31884;52.538;13.820;2023-05-10T13:12:02;3.00;;;2.15;;
44842;SDS011;31884;52.538;13.820;2023-05-10T13:14:28;2.35;;;2.05;;
44842;SDS011;31884;52.538;13.820;2023-05-10T13:16:54;4.18;;;2.20;;
44842;SDS011;31884;52.538;13.820;2023-05-10T13:19:20;3.53;;;2.50;;
44842;SDS011;31884;52.538;13.820;2023-05-10T13:21:45;2.40;;;2.20;;
44842;SDS011;31884;52.538;13.820;2023-05-10T13:24:11;3.10;;;2.03;;
44842;SDS011;31884;52.538;13.820;2023-05-10T13:26:38;3.45;;;2.35;;
44842;SDS011;31884;52.538;13.820;2023-05-10T13:29:05;6.80;;;2.15;;
44842;SDS011;31884;52.538;13.820;2023-05-10T13:31:30;2.97;;;2.10;;
44842;SDS011;31884;52.538;13.820;2023-05-10T13:33:56;3.20;;;2.30;;
44842;SDS011;31884;52.538;13.820;2023-05-10T13:36:21;3.65;;;2.28;;
44842;SDS011;31884;52.538;13.820;2023-05-10T13:38:47;4.88;;;1.95;;
44842;SDS011;31884;52.538;13.820;2023-05-10T13:41:13;6.28;;;2.53;;
44842;SDS011;31884;52.538;13.820;2023-05-10T13:43:39;9.25;;;2.53;;
44842;SDS011;31884;52.538;13.820;2023-05-10T13:46:04;4.55;;;1.80;;
44842;SDS011;31884;52.538;13.820;2023-05-10T13:48:30;4.22;;;2.20;;
44842;SDS011;31884;52.538;13.820;2023-05-10T13:50:56;2.45;;;2.15;;
44842;SDS011;31884;52.538;13.820;2023-05-10T13:53:21;2.22;;;1.92;;
44842;SDS011;31884;52.538;13.820;2023-05-10T13:55:47;2.25;;;1.85;;
44842;SDS011;31884;52.538;13.820;2023-05-10T13:58:12;3.25;;;2.15;;
44842;SDS011;31884;52.538;13.820;2023-05-10T14:00:38;2.47;;;2.20;;
44842;SDS011;31884;52.538;13.820;2023-05-10T14:03:03;2.80;;;2.40;;
44842;SDS011;31884;52.538;13.820;2023-05-10T14:05:30;5.32;;;2.35;;
44842;SDS011;31884;52.538;13.820;2023-05-10T14:07:55;3.92;;;1.70;;
44842;SDS011;31884;52.538;13.820;2023-05-10T14:10:21;5.32;;;2.10;;
44842;SDS011;31884;52.538;13.820;2023-05-10T14:12:46;2.78;;;1.90;;
44842;SDS011;31884;52.538;13.820;2023-05-10T14:15:12;4.72;;;2.22;;
44842;SDS011;31884;52.538;13.820;2023-05-10T14:17:37;4.00;;;2.13;;
44842;SDS011;31884;52.538;13.820;2023-05-10T14:20:03;3.00;;;2.22;;
44842;SDS011;31884;52.538;13.820;2023-05-10T14:22:29;3.20;;;2.28;;
44842;SDS011;31884;52.538;13.820;2023-05-10T14:24:54;3.90;;;2.15;;
44842;SDS011;31884;52.538;13.820;2023-05-10T14:27:20;3.25;;;1.73;;
44842;SDS011;31884;52.538;13.820;2023-05-10T14:29:46;4.07;;;2.03;;
44842;SDS011;31884;52.538;13.820;2023-05-10T14:32:12;2.20;;;2.00;;
44842;SDS011;31884;52.538;13.820;2023-05-10T14:34:38;3.60;;;1.90;;
44842;SDS011;31884;52.538;13.820;2023-05-10T14:37:03;4.15;;;1.90;;
44842;SDS011;31884;52.538;13.820;2023-05-10T14:39:29;2.28;;;2.00;;
44842;SDS011;31884;52.538;13.820;2023-05-10T14:41:55;2.10;;;1.90;;
44842;SDS011;31884;52.538;13.820;2023-05-10T14:44:21;5.70;;;2.40;;
44842;SDS011;31884;52.538;13.820;2023-05-10T14:46:46;3.30;;;2.35;;
44842;SDS011;31884;52.538;13.820;2023-05-10T14:49:13;2.10;;;1.73;;
44842;SDS011;31884;52.538;13.820;2023-05-10T14:51:38;2.65;;;2.20;;
44842;SDS011;31884;52.538;13.820;2023-05-10T14:54:04;3.83;;;2.28;;
44842;SDS011;31884;52.538;13.820;2023-05-10T14:56:30;4.25;;;1.92;;
44842;SDS011;31884;52.538;13.820;2023-05-10T14:58:55;3.38;;;2.40;;
44842;SDS011;31884;52.538;13.820;2023-05-10T15:01:21;3.63;;;2.70;;
44842;SDS011;31884;52.538;13.820;2023-05-10T15:03:47;3.38;;;1.90;;